sensor_id;sensor_type;location;lat;lon;timestamp;P1;durP1;ratioP1;P2;durP2;ratioP2
33148;SDS011;19506;51.040;3.856;2023-07-16T03:17:30;9.82;;;3.90;;
33148;SDS011;19506;51.040;3.856;2023-07-16T03:19:56;10.73;;;4.70;;
33148;SDS011;19506;51.040;3.856;2023-07-16T03:22:21;19.98;;;4.30;;
33148;SDS011;19506;51.040;3.856;2023-07-16T03:24:47;11.20;;;3.45;;
33148;SDS011;19506;51.040;3.856;2023-07-16T03:27:13;10.25;;;5.05;;
33148;SDS011;19506;51.040;3.856;2023-07-16T03:29:39;14.23;;;4.72;;
33148;SDS011;19506;51.040;3.856;2023-07-16T03:32:04;8.15;;;3.58;;
33148;SDS011;19506;51.040;3.856;2023-07-16T03:34:30;10.55;;;4.18;;
33148;SDS011;19506;51.040;3.856;2023-07-16T03:36:56;11.68;;;4.72;;
33148;SDS011;19506;51.040;3.856;2023-07-16T03:39:21;14.23;;;4.60;;
33148;SDS011;19506;51.040;3.856;2023-07-16T03:41:47;11.98;;;4.80;;
33148;SDS011;19506;51.040;3.856;2023-07-16T03:44:13;9.50;;;4.78;;
33148;SDS011;19506;51.040;3.856;2023-07-16T03:46:38;18.30;;;4.82;;
33148;SDS011;19506;51.040;3.856;2023-07-16T03:49:06;11.82;;;4.18;;
33148;SDS011;19506;51.040;3.856;2023-07-16T03:51:33;9.40;;;4.50;;
33148;SDS011;19506;51.040;3.856;2023-07-16T03:53:58;20.70;;;4.50;;
33148;SDS011;19506;51.040;3.856;2023-07-16T03:56:24;10.73;;;5.25;;
33148;SDS011;19506;51.040;3.856;2023-07-16T03:58:50;11.35;;;4.65;;
33148;SDS011;19506;51.040;3.856;2023-07-16T04:01:15;17.98;;;4.88;;
33148;SDS011;19506;51.040;3.856;2023-07-16T04:03:41;8.30;;;4.20;;
33148;SDS011;19506;51.040;3.856;2023-07-16T04:06:07;10.27;;;4.25;;
33148;SDS011;19506;51.040;3.856;2023-07-16T04:08:36;10.05;;;4.68;;
33148;SDS011;19506;51.040;3.856;2023-07-16T04:11:04;9.85;;;4.63;;
33148;SDS011;19506;51.040;3.856;2023-07-16T04:13:30;11.20;;;5.22;;
33148;SDS011;19506;51.040;3.856;2023-07-16T04:15:56;10.95;;;4.07;;
33148;SDS011;19506;51.040;3.856;2023-07-16T04:18:23;12.48;;;4.90;;
33148;SDS011;19506;51.040;3.856;2023-07-16T04:20:49;16.40;;;5.60;;
33148;SDS011;19506;51.040;3.856;2023-07-16T04:23:15;8.95;;;5.30;;
33148;SDS011;19506;51.040;3.856;2023-07-16T04:25:41;9.57;;;4.70;;
33148;SDS011;19506;51.040;3.856;2023-07-16T04:28:06;8.45;;;4.90;;
33148;SDS011;19506;51.040;3.856;2023-07-16T04:30:32;8.20;;;4.93;;
33148;SDS011;19506;51.040;3.856;2023-07-16T04:32:58;8.10;;;4.40;;
33148;SDS011;19506;51.040;3.856;2023-07-16T04:35:23;6.75;;;4.57;;
33148;SDS011;19506;51.040;3.856;2023-07-16T04:37:50;13.43;;;5.45;;
33148;SDS011;19506;51.040;3.856;2023-07-16T04:40:15;13.88;;;5.35;;
33148;SDS011;19506;51.040;3.856;2023-07-16T04:42:41;10.98;;;4.72;;
33148;SDS011;19506;51.040;3.856;2023-07-16T04:45:07;11.70;;;5.93;;
33148;SDS011;19506;51.040;3.856;2023-07-16T04:47:33;9.43;;;4.93;;
33148;SDS011;19506;51.040;3.856;2023-07-16T04:49:58;9.07;;;5.93;;
33148;SDS011;19506;51.040;3.856;2023-07-16T04:52:24;7.82;;;4.60;;
33148;SDS011;19506;51.040;3.856;2023-07-16T04:54:50;10.48;;;4.70;;
33148;SDS011;19506;51.040;3.856;2023-07-16T04:57:16;12.43;;;5.50;;
33148;SDS011;19506;51.040;3.856;2023-07-16T04:59:41;13.63;;;5.85;;
33148;SDS011;19506;51.040;3.856;2023-07-16T05:02:07;19.23;;;5.80;;
33148;SDS011;19506;51.040;3.856;2023-07-16T05:04:33;13.50;;;5.28;;
33148;SDS011;19506;51.040;3.856;2023-07-16T05:07:01;18.70;;;5.88;;
33148;SDS011;19506;51.040;3.856;2023-07-16T05:09:27;9.60;;;5.50;;
33148;SDS011;19506;51.040;3.856;2023-07-16T05:11:53;13.13;;;4.95;;
33148;SDS011;19506;51.040;3.856;2023-07-16T05:14:18;13.77;;;5.90;;
33148;SDS011;19506;51.040;3.856;2023-07-16T05:16:44;15.50;;;5.25;;
33148;SDS011;19506;51.040;3.856;2023-07-16T05:19:10;13.18;;;7.00;;
33148;SDS011;19506;51.040;3.856;2023-07-16T05:21:35;13.30;;;5.03;;
33148;SDS011;19506;51.040;3.856;2023-07-16T05:24:01;8.93;;;5.50;;
33148;SDS011;19506;51.040;3.856;2023-07-16T05:26:27;10.82;;;5.25;;
33148;SDS011;19506;51.040;3.856;2023-07-16T05:28:53;12.43;;;5.32;;
33148;SDS011;19506;51.040;3.856;2023-07-16T05:31:19;14.52;;;5.95;;
33148;SDS011;19506;51.040;3.856;2023-07-16T05:33:44;8.18;;;4.72;;
33148;SDS011;19506;51.040;3.856;2023-07-16T05:36:10;11.98;;;6.00;;
33148;SDS011;19506;51.040;3.856;2023-07-16T05:38:36;14.25;;;5.55;;
33148;SDS011;19506;51.040;3.856;2023-07-16T05:41:02;13.10;;;6.07;;
33148;SDS011;19506;51.040;3.856;2023-07-16T05:43:28;11.18;;;5.25;;
33148;SDS011;19506;51.040;3.856;2023-07-16T05:45:54;16.35;;;5.75;;
33148;SDS011;19506;51.040;3.856;2023-07-16T05:48:20;13.27;;;6.88;;
33148;SDS011;19506;51.040;3.856;2023-07-16T05:50:45;17.75;;;6.57;;
33148;SDS011;19506;51.040;3.856;2023-07-16T05:53:11;15.60;;;5.75;;
33148;SDS011;19506;51.040;3.856;2023-07-16T05:55:39;10.05;;;5.90;;
33148;SDS011;19506;51.040;3.856;2023-07-16T05:58:05;14.88;;;6.38;;
33148;SDS011;19506;51.040;3.856;2023-07-16T06:00:30;18.75;;;6.50;;
33148;SDS011;19506;51.040;3.856;2023-07-16T06:02:56;11.02;;;5.80;;
33148;SDS011;19506;51.040;3.856;2023-07-16T06:05:22;12.15;;;5.70;;
33148;SDS011;19506;51.040;3.856;2023-07-16T06:07:49;12.30;;;6.38;;
33148;SDS011;19506;51.040;3.856;2023-07-16T06:10:15;17.65;;;6.18;;
33148;SDS011;19506;51.040;3.856;2023-07-16T06:12:41;12.68;;;5.90;;
33148;SDS011;19506;51.040;3.856;2023-07-16T06:15:07;11.02;;;4.88;;
33148;SDS011;19506;51.040;3.856;2023-07-16T06:17:33;18.95;;;5.57;;
33148;SDS011;19506;51.040;3.856;2023-07-16T06:19:58;14.70;;;5.60;;
33148;SDS011;19506;51.040;3.856;2023-07-16T06:22:24;10.68;;;5.43;;
33148;SDS011;19506;51.040;3.856;2023-07-16T06:24:50;12.43;;;5.50;;
33148;SDS011;19506;51.040;3.856;2023-07-16T06:27:15;13.35;;;5.97;;
33148;SDS011;19506;51.040;3.856;2023-07-16T06:29:41;14.23;;;6.00;;
33148;SDS011;19506;51.040;3.856;2023-07-16T06:32:07;16.90;;;7.57;;
33148;SDS011;19506;51.040;3.856;2023-07-16T06:34:33;19.25;;;6.95;;
33148;SDS011;19506;51.040;3.856;2023-07-16T06:36:59;15.45;;;6.95;;
33148;SDS011;19506;51.040;3.856;2023-07-16T06:39:25;16.65;;;6.45;;
33148;SDS011;19506;51.040;3.856;2023-07-16T06:41:50;21.33;;;6.88;;
33148;SDS011;19506;51.040;3.856;2023-07-16T06:44:16;12.93;;;6.40;;
33148;SDS011;19506;51.040;3.856;2023-07-16T06:46:42;16.42;;;6.00;;
33148;SDS011;19506;51.040;3.856;2023-07-16T06:49:07;19.75;;;6.38;;
33148;SDS011;19506;51.040;3.856;2023-07-16T06:51:33;16.75;;;7.00;;
33148;SDS011;19506;51.040;3.856;2023-07-16T06:53:59;19.50;;;7.40;;
33148;SDS011;19506;51.040;3.856;2023-07-16T06:56:25;16.45;;;6.63;;
33148;SDS011;19506;51.040;3.856;2023-07-16T06:58:50;17.02;;;6.50;;
33148;SDS011;19506;51.040;3.856;2023-07-16T07:01:16;14.50;;;6.80;;
33148;SDS011;19506;51.040;3.856;2023-07-16T07:03:42;20.23;;;7.45;;
33148;SDS011;19506;51.040;3.856;2023-07-16T07:06:07;12.57;;;6.30;;
33148;SDS011;19506;51.040;3.856;2023-07-16T07:08:35;22.77;;;7.15;;
33148;SDS011;19506;51.040;3.856;2023-07-16T07:11:01;17.00;;;8.07;;
33148;SDS011;19506;51.040;3.856;2023-07-16T07:13:27;17.92;;;6.35;;
33148;SDS011;19506;51.040;3.856;2023-07-16T07:15:54;14.52;;;6.35;;
33148;SDS011;19506;51.040;3.856;2023-07-16T07:18:20;12.65;;;6.57;;
33148;SDS011;19506;51.040;3.856;2023-07-16T07:20:46;17.27;;;7.28;;
33148;SDS011;19506;51.040;3.856;2023-07-16T07:23:12;18.13;;;7.25;;
33148;SDS011;19506;51.040;3.856;2023-07-16T07:25:38;18.60;;;7.10;;
33148;SDS011;19506;51.040;3.856;2023-07-16T07:28:04;17.65;;;7.15;;
33148;SDS011;19506;51.040;3.856;2023-07-16T07:30:30;16.40;;;6.88;;
33148;SDS011;19506;51.040;3.856;2023-07-16T07:32:55;21.17;;;6.93;;
33148;SDS011;19506;51.040;3.856;2023-07-16T07:35:21;14.98;;;7.78;;
33148;SDS011;19506;51.040;3.856;2023-07-16T07:37:47;14.43;;;6.07;;
33148;SDS011;19506;51.040;3.856;2023-07-16T07:40:12;13.95;;;6.18;;
33148;SDS011;19506;51.040;3.856;2023-07-16T07:42:39;21.25;;;6.47;;
33148;SDS011;19506;51.040;3.856;2023-07-16T07:45:05;12.23;;;5.80;;
33148;SDS011;19506;51.040;3.856;2023-07-16T07:47:31;17.13;;;6.75;;
33148;SDS011;19506;51.040;3.856;2023-07-16T07:49:56;13.45;;;7.07;;
33148;SDS011;19506;51.040;3.856;2023-07-16T07:52:22;15.15;;;6.57;;
33148;SDS011;19506;51.040;3.856;2023-07-16T07:54:48;17.98;;;6.60;;
33148;SDS011;19506;51.040;3.856;2023-07-16T07:57:14;18.13;;;6.40;;
33148;SDS011;19506;51.040;3.856;2023-07-16T07:59:40;14.70;;;6.57;;
33148;SDS011;19506;51.040;3.856;2023-07-16T08:02:05;18.50;;;7.00;;
33148;SDS011;19506;51.040;3.856;2023-07-16T08:04:31;15.18;;;6.70;;
33148;SDS011;19506;51.040;3.856;2023-07-16T08:06:57;15.73;;;6.28;;
33148;SDS011;19506;51.040;3.856;2023-07-16T08:09:23;20.20;;;7.30;;
33148;SDS011;19506;51.040;3.856;2023-07-16T08:11:50;21.27;;;6.93;;
33148;SDS011;19506;51.040;3.856;2023-07-16T08:14:16;16.60;;;6.03;;
33148;SDS011;19506;51.040;3.856;2023-07-16T08:16:42;16.58;;;7.07;;
33148;SDS011;19506;51.040;3.856;2023-07-16T08:19:07;18.27;;;6.43;;
33148;SDS011;19506;51.040;3.856;2023-07-16T08:21:34;16.90;;;6.80;;
33148;SDS011;19506;51.040;3.856;2023-07-16T08:24:01;16.42;;;6.28;;
33148;SDS011;19506;51.040;3.856;2023-07-16T08:26:26;17.48;;;6.22;;
33148;SDS011;19506;51.040;3.856;2023-07-16T08:28:52;11.20;;;6.20;;
33148;SDS011;19506;51.040;3.856;2023-07-16T08:31:18;22.75;;;7.35;;
33148;SDS011;19506;51.040;3.856;2023-07-16T08:33:43;14.52;;;5.90;;
33148;SDS011;19506;51.040;3.856;2023-07-16T08:36:09;15.35;;;7.15;;
33148;SDS011;19506;51.040;3.856;2023-07-16T08:38:35;12.32;;;5.72;;
33148;SDS011;19506;51.040;3.856;2023-07-16T08:41:01;17.45;;;6.32;;
33148;SDS011;19506;51.040;3.856;2023-07-16T08:43:27;12.60;;;5.47;;
33148;SDS011;19506;51.040;3.856;2023-07-16T08:45:54;10.13;;;5.82;;
33148;SDS011;19506;51.040;3.856;2023-07-16T08:48:20;18.42;;;5.57;;
33148;SDS011;19506;51.040;3.856;2023-07-16T08:50:48;11.52;;;5.50;;
33148;SDS011;19506;51.040;3.856;2023-07-16T08:53:17;16.67;;;5.78;;
33148;SDS011;19506;51.040;3.856;2023-07-16T08:55:46;20.38;;;5.35;;
33148;SDS011;19506;51.040;3.856;2023-07-16T08:58:16;18.63;;;6.20;;
33148;SDS011;19506;51.040;3.856;2023-07-16T09:00:42;15.13;;;5.57;;
33148;SDS011;19506;51.040;3.856;2023-07-16T09:03:12;14.93;;;5.72;;
33148;SDS011;19506;51.040;3.856;2023-07-16T09:05:43;16.42;;;6.05;;
33148;SDS011;19506;51.040;3.856;2023-07-16T09:08:10;18.48;;;6.25;;
33148;SDS011;19506;51.040;3.856;2023-07-16T09:10:36;14.77;;;5.60;;
33148;SDS011;19506;51.040;3.856;2023-07-16T09:13:02;11.18;;;5.38;;
33148;SDS011;19506;51.040;3.856;2023-07-16T09:15:28;14.30;;;5.18;;
33148;SDS011;19506;51.040;3.856;2023-07-16T09:17:55;11.98;;;5.55;;
33148;SDS011;19506;51.040;3.856;2023-07-16T09:20:21;13.95;;;6.22;;
33148;SDS011;19506;51.040;3.856;2023-07-16T09:22:53;14.98;;;5.50;;
33148;SDS011;19506;51.040;3.856;2023-07-16T09:25:25;10.63;;;5.57;;
33148;SDS011;19506;51.040;3.856;2023-07-16T09:27:51;11.02;;;5.40;;
33148;SDS011;19506;51.040;3.856;2023-07-16T09:30:17;12.15;;;5.57;;
33148;SDS011;19506;51.040;3.856;2023-07-16T09:32:43;16.20;;;5.80;;
33148;SDS011;19506;51.040;3.856;2023-07-16T09:35:11;12.85;;;6.22;;
33148;SDS011;19506;51.040;3.856;2023-07-16T09:37:37;12.02;;;5.07;;
33148;SDS011;19506;51.040;3.856;2023-07-16T09:40:07;13.25;;;6.78;;
33148;SDS011;19506;51.040;3.856;2023-07-16T09:42:41;16.60;;;5.57;;
33148;SDS011;19506;51.040;3.856;2023-07-16T09:45:12;10.27;;;5.70;;
33148;SDS011;19506;51.040;3.856;2023-07-16T09:47:44;13.23;;;6.20;;
33148;SDS011;19506;51.040;3.856;2023-07-16T09:50:10;16.20;;;5.18;;
33148;SDS011;19506;51.040;3.856;2023-07-16T09:52:36;13.93;;;5.28;;
33148;SDS011;19506;51.040;3.856;2023-07-16T09:55:04;21.50;;;5.22;;
33148;SDS011;19506;51.040;3.856;2023-07-16T09:57:37;13.25;;;5.07;;
33148;SDS011;19506;51.040;3.856;2023-07-16T10:00:06;7.75;;;4.68;;
33148;SDS011;19506;51.040;3.856;2023-07-16T10:02:40;13.30;;;4.00;;
33148;SDS011;19506;51.040;3.856;2023-07-16T10:07:42;6.75;;;3.53;;
33148;SDS011;19506;51.040;3.856;2023-07-16T10:10:09;5.25;;;3.10;;
33148;SDS011;19506;51.040;3.856;2023-07-16T10:12:36;7.90;;;2.80;;
33148;SDS011;19506;51.040;3.856;2023-07-16T10:15:03;7.22;;;3.65;;
33148;SDS011;19506;51.040;3.856;2023-07-16T10:17:31;8.07;;;3.13;;
33148;SDS011;19506;51.040;3.856;2023-07-16T10:22:43;10.80;;;3.63;;
33148;SDS011;19506;51.040;3.856;2023-07-16T10:27:43;4.80;;;2.22;;
33148;SDS011;19506;51.040;3.856;2023-07-16T10:30:10;5.63;;;2.65;;
33148;SDS011;19506;51.040;3.856;2023-07-16T10:32:36;4.65;;;3.05;;
33148;SDS011;19506;51.040;3.856;2023-07-16T10:35:03;6.15;;;2.85;;
33148;SDS011;19506;51.040;3.856;2023-07-16T10:37:30;7.25;;;3.17;;
33148;SDS011;19506;51.040;3.856;2023-07-16T10:39:57;10.07;;;2.38;;
33148;SDS011;19506;51.040;3.856;2023-07-16T10:42:24;10.90;;;3.38;;
33148;SDS011;19506;51.040;3.856;2023-07-16T10:44:51;7.18;;;2.75;;
33148;SDS011;19506;51.040;3.856;2023-07-16T10:47:20;9.38;;;3.42;;
33148;SDS011;19506;51.040;3.856;2023-07-16T10:49:48;9.43;;;2.53;;
33148;SDS011;19506;51.040;3.856;2023-07-16T10:52:14;11.05;;;3.35;;
33148;SDS011;19506;51.040;3.856;2023-07-16T10:54:40;16.90;;;2.88;;
33148;SDS011;19506;51.040;3.856;2023-07-16T10:57:06;10.15;;;3.42;;
33148;SDS011;19506;51.040;3.856;2023-07-16T10:59:32;7.05;;;2.97;;
33148;SDS011;19506;51.040;3.856;2023-07-16T11:01:57;5.90;;;2.60;;
33148;SDS011;19506;51.040;3.856;2023-07-16T11:04:23;5.57;;;2.55;;
33148;SDS011;19506;51.040;3.856;2023-07-16T11:06:49;7.18;;;3.20;;
33148;SDS011;19506;51.040;3.856;2023-07-16T11:09:15;9.73;;;3.50;;
33148;SDS011;19506;51.040;3.856;2023-07-16T11:11:41;6.90;;;3.10;;
33148;SDS011;19506;51.040;3.856;2023-07-16T11:14:07;5.85;;;2.65;;
33148;SDS011;19506;51.040;3.856;2023-07-16T11:16:36;7.55;;;2.53;;
33148;SDS011;19506;51.040;3.856;2023-07-16T11:19:03;7.15;;;3.05;;
33148;SDS011;19506;51.040;3.856;2023-07-16T11:21:30;9.48;;;2.45;;
33148;SDS011;19506;51.040;3.856;2023-07-16T11:24:09;10.15;;;2.70;;
33148;SDS011;19506;51.040;3.856;2023-07-16T11:26:37;6.72;;;2.60;;
33148;SDS011;19506;51.040;3.856;2023-07-16T11:29:12;7.22;;;2.80;;
33148;SDS011;19506;51.040;3.856;2023-07-16T11:34:06;8.32;;;2.55;;
33148;SDS011;19506;51.040;3.856;2023-07-16T11:36:32;6.43;;;2.63;;
33148;SDS011;19506;51.040;3.856;2023-07-16T11:38:58;5.60;;;2.78;;
33148;SDS011;19506;51.040;3.856;2023-07-16T11:41:27;8.32;;;3.05;;
33148;SDS011;19506;51.040;3.856;2023-07-16T11:43:52;8.80;;;2.72;;
33148;SDS011;19506;51.040;3.856;2023-07-16T11:46:18;7.18;;;2.47;;
33148;SDS011;19506;51.040;3.856;2023-07-16T11:48:44;7.25;;;2.65;;
33148;SDS011;19506;51.040;3.856;2023-07-16T11:51:09;9.77;;;3.00;;
33148;SDS011;19506;51.040;3.856;2023-07-16T11:53:35;7.05;;;3.05;;
33148;SDS011;19506;51.040;3.856;2023-07-16T11:56:00;11.13;;;2.70;;
33148;SDS011;19506;51.040;3.856;2023-07-16T11:58:27;6.93;;;2.83;;
33148;SDS011;19506;51.040;3.856;2023-07-16T12:00:53;5.20;;;2.80;;
33148;SDS011;19506;51.040;3.856;2023-07-16T12:03:18;6.03;;;3.10;;
33148;SDS011;19506;51.040;3.856;2023-07-16T12:05:44;6.88;;;3.10;;
33148;SDS011;19506;51.040;3.856;2023-07-16T12:08:10;8.35;;;2.95;;
33148;SDS011;19506;51.040;3.856;2023-07-16T12:10:39;9.20;;;3.67;;
33148;SDS011;19506;51.040;3.856;2023-07-16T12:13:05;7.00;;;2.47;;
33148;SDS011;19506;51.040;3.856;2023-07-16T12:15:31;9.10;;;2.58;;
33148;SDS011;19506;51.040;3.856;2023-07-16T12:17:58;5.60;;;2.67;;
33148;SDS011;19506;51.040;3.856;2023-07-16T12:20:24;6.35;;;2.67;;
33148;SDS011;19506;51.040;3.856;2023-07-16T12:22:51;6.50;;;3.08;;
33148;SDS011;19506;51.040;3.856;2023-07-16T12:25:16;5.57;;;3.17;;
33148;SDS011;19506;51.040;3.856;2023-07-16T12:27:44;3.53;;;2.20;;
33148;SDS011;19506;51.040;3.856;2023-07-16T12:30:10;5.72;;;2.50;;
33148;SDS011;19506;51.040;3.856;2023-07-16T12:32:36;5.47;;;2.80;;
33148;SDS011;19506;51.040;3.856;2023-07-16T12:35:02;8.13;;;2.75;;
33148;SDS011;19506;51.040;3.856;2023-07-16T12:37:29;11.98;;;3.58;;
33148;SDS011;19506;51.040;3.856;2023-07-16T12:39:55;7.45;;;2.47;;
33148;SDS011;19506;51.040;3.856;2023-07-16T12:42:21;4.97;;;2.90;;
33148;SDS011;19506;51.040;3.856;2023-07-16T12:44:46;6.50;;;2.50;;
33148;SDS011;19506;51.040;3.856;2023-07-16T12:47:14;7.65;;;3.55;;
33148;SDS011;19506;51.040;3.856;2023-07-16T12:49:40;9.88;;;2.67;;
33148;SDS011;19506;51.040;3.856;2023-07-16T12:52:06;5.53;;;2.50;;
33148;SDS011;19506;51.040;3.856;2023-07-16T12:54:32;4.32;;;2.53;;
33148;SDS011;19506;51.040;3.856;2023-07-16T12:56:57;7.95;;;2.80;;
33148;SDS011;19506;51.040;3.856;2023-07-16T12:59:23;6.55;;;2.60;;
33148;SDS011;19506;51.040;3.856;2023-07-16T13:01:49;5.97;;;2.90;;
33148;SDS011;19506;51.040;3.856;2023-07-16T13:04:16;5.35;;;2.60;;
33148;SDS011;19506;51.040;3.856;2023-07-16T13:06:41;7.20;;;2.88;;
33148;SDS011;19506;51.040;3.856;2023-07-16T13:09:07;13.82;;;2.40;;
33148;SDS011;19506;51.040;3.856;2023-07-16T13:11:33;9.27;;;3.20;;
33148;SDS011;19506;51.040;3.856;2023-07-16T13:13:59;7.43;;;2.80;;
33148;SDS011;19506;51.040;3.856;2023-07-16T13:16:24;13.60;;;4.18;;
33148;SDS011;19506;51.040;3.856;2023-07-16T13:18:51;6.45;;;2.97;;
33148;SDS011;19506;51.040;3.856;2023-07-16T13:21:17;5.22;;;2.42;;
33148;SDS011;19506;51.040;3.856;2023-07-16T13:23:42;8.90;;;2.92;;
33148;SDS011;19506;51.040;3.856;2023-07-16T13:26:08;9.23;;;2.80;;
33148;SDS011;19506;51.040;3.856;2023-07-16T13:28:34;3.78;;;2.55;;
33148;SDS011;19506;51.040;3.856;2023-07-16T13:31:00;9.48;;;3.05;;
33148;SDS011;19506;51.040;3.856;2023-07-16T13:33:25;10.55;;;3.05;;
33148;SDS011;19506;51.040;3.856;2023-07-16T13:35:51;7.60;;;2.70;;
33148;SDS011;19506;51.040;3.856;2023-07-16T13:38:17;6.82;;;2.70;;
33148;SDS011;19506;51.040;3.856;2023-07-16T13:40:42;4.68;;;1.90;;
33148;SDS011;19506;51.040;3.856;2023-07-16T13:43:08;6.43;;;2.40;;
33148;SDS011;19506;51.040;3.856;2023-07-16T13:45:34;5.55;;;2.13;;
33148;SDS011;19506;51.040;3.856;2023-07-16T13:48:00;4.03;;;2.00;;
33148;SDS011;19506;51.040;3.856;2023-07-16T13:50:26;3.20;;;1.80;;
33148;SDS011;19506;51.040;3.856;2023-07-16T13:52:52;6.15;;;2.03;;
33148;SDS011;19506;51.040;3.856;2023-07-16T13:55:17;3.05;;;1.90;;
33148;SDS011;19506;51.040;3.856;2023-07-16T13:57:43;7.38;;;2.30;;
33148;SDS011;19506;51.040;3.856;2023-07-16T14:00:09;6.22;;;2.15;;
33148;SDS011;19506;51.040;3.856;2023-07-16T14:02:35;17.20;;;2.60;;
33148;SDS011;19506;51.040;3.856;2023-07-16T14:05:01;4.10;;;1.83;;
33148;SDS011;19506;51.040;3.856;2023-07-16T14:07:27;4.32;;;2.10;;
33148;SDS011;19506;51.040;3.856;2023-07-16T14:09:53;3.58;;;2.20;;
33148;SDS011;19506;51.040;3.856;2023-07-16T14:12:19;3.67;;;2.10;;
33148;SDS011;19506;51.040;3.856;2023-07-16T14:14:45;5.45;;;1.88;;
33148;SDS011;19506;51.040;3.856;2023-07-16T14:17:10;4.85;;;1.65;;
33148;SDS011;19506;51.040;3.856;2023-07-16T14:19:36;3.08;;;1.75;;
33148;SDS011;19506;51.040;3.856;2023-07-16T14:22:02;3.35;;;1.70;;
33148;SDS011;19506;51.040;3.856;2023-07-16T14:24:28;6.20;;;1.80;;
33148;SDS011;19506;51.040;3.856;2023-07-16T14:26:53;3.08;;;1.70;;
33148;SDS011;19506;51.040;3.856;2023-07-16T14:29:22;4.07;;;1.67;;
33148;SDS011;19506;51.040;3.856;2023-07-16T14:31:48;2.92;;;1.63;;
33148;SDS011;19506;51.040;3.856;2023-07-16T14:34:14;3.33;;;2.08;;
33148;SDS011;19506;51.040;3.856;2023-07-16T14:36:40;4.15;;;1.90;;
33148;SDS011;19506;51.040;3.856;2023-07-16T14:39:06;3.65;;;1.55;;
33148;SDS011;19506;51.040;3.856;2023-07-16T14:41:32;12.80;;;3.00;;
33148;SDS011;19506;51.040;3.856;2023-07-16T14:43:57;2.65;;;1.80;;
33148;SDS011;19506;51.040;3.856;2023-07-16T14:46:23;4.60;;;2.15;;
33148;SDS011;19506;51.040;3.856;2023-07-16T14:48:50;6.35;;;1.73;;
33148;SDS011;19506;51.040;3.856;2023-07-16T14:51:20;5.25;;;2.03;;
33148;SDS011;19506;51.040;3.856;2023-07-16T14:53:45;3.30;;;1.88;;
33148;SDS011;19506;51.040;3.856;2023-07-16T14:56:11;6.68;;;1.80;;
33148;SDS011;19506;51.040;3.856;2023-07-16T14:58:37;7.82;;;1.70;;
33148;SDS011;19506;51.040;3.856;2023-07-16T15:01:02;8.05;;;2.30;;
33148;SDS011;19506;51.040;3.856;2023-07-16T15:03:32;7.68;;;1.65;;
33148;SDS011;19506;51.040;3.856;2023-07-16T15:05:59;4.63;;;1.85;;
33148;SDS011;19506;51.040;3.856;2023-07-16T15:08:25;4.00;;;1.45;;
33148;SDS011;19506;51.040;3.856;2023-07-16T15:10:54;3.92;;;2.15;;
33148;SDS011;19506;51.040;3.856;2023-07-16T15:13:29;7.05;;;2.00;;
33148;SDS011;19506;51.040;3.856;2023-07-16T15:15:55;12.50;;;1.75;;
33148;SDS011;19506;51.040;3.856;2023-07-16T15:18:22;4.65;;;1.90;;
33148;SDS011;19506;51.040;3.856;2023-07-16T15:20:48;3.25;;;1.90;;
33148;SDS011;19506;51.040;3.856;2023-07-16T15:23:14;11.98;;;1.98;;
33148;SDS011;19506;51.040;3.856;2023-07-16T15:25:42;1.98;;;1.75;;
33148;SDS011;19506;51.040;3.856;2023-07-16T15:28:11;5.70;;;2.17;;
33148;SDS011;19506;51.040;3.856;2023-07-16T15:30:37;4.45;;;1.63;;
33148;SDS011;19506;51.040;3.856;2023-07-16T15:33:02;3.63;;;1.98;;
33148;SDS011;19506;51.040;3.856;2023-07-16T15:35:28;5.32;;;2.13;;
33148;SDS011;19506;51.040;3.856;2023-07-16T15:37:54;5.53;;;1.92;;
33148;SDS011;19506;51.040;3.856;2023-07-16T15:40:22;6.30;;;2.17;;
33148;SDS011;19506;51.040;3.856;2023-07-16T15:42:48;4.05;;;1.80;;
33148;SDS011;19506;51.040;3.856;2023-07-16T15:45:15;5.38;;;1.70;;
33148;SDS011;19506;51.040;3.856;2023-07-16T15:47:45;4.07;;;1.80;;
33148;SDS011;19506;51.040;3.856;2023-07-16T15:50:11;5.35;;;1.73;;
33148;SDS011;19506;51.040;3.856;2023-07-16T15:52:37;7.88;;;2.10;;
33148;SDS011;19506;51.040;3.856;2023-07-16T15:55:03;8.55;;;2.47;;
33148;SDS011;19506;51.040;3.856;2023-07-16T15:57:30;4.68;;;1.67;;
33148;SDS011;19506;51.040;3.856;2023-07-16T15:59:58;3.20;;;1.88;;
33148;SDS011;19506;51.040;3.856;2023-07-16T16:02:24;5.75;;;1.67;;
33148;SDS011;19506;51.040;3.856;2023-07-16T16:04:50;4.03;;;1.77;;
33148;SDS011;19506;51.040;3.856;2023-07-16T16:07:16;4.07;;;1.70;;
33148;SDS011;19506;51.040;3.856;2023-07-16T16:09:41;2.88;;;1.65;;
33148;SDS011;19506;51.040;3.856;2023-07-16T16:12:07;2.90;;;1.38;;
33148;SDS011;19506;51.040;3.856;2023-07-16T16:14:33;4.80;;;1.42;;
33148;SDS011;19506;51.040;3.856;2023-07-16T16:17:00;7.13;;;1.80;;
33148;SDS011;19506;51.040;3.856;2023-07-16T16:19:25;3.83;;;2.05;;
33148;SDS011;19506;51.040;3.856;2023-07-16T16:21:51;3.95;;;1.92;;
33148;SDS011;19506;51.040;3.856;2023-07-16T16:24:17;4.82;;;1.92;;
33148;SDS011;19506;51.040;3.856;2023-07-16T16:26:42;3.53;;;1.55;;
33148;SDS011;19506;51.040;3.856;2023-07-16T16:29:08;7.72;;;1.98;;
33148;SDS011;19506;51.040;3.856;2023-07-16T16:31:34;3.88;;;1.98;;
33148;SDS011;19506;51.040;3.856;2023-07-16T16:34:00;3.72;;;2.15;;
33148;SDS011;19506;51.040;3.856;2023-07-16T16:36:25;7.38;;;1.77;;
33148;SDS011;19506;51.040;3.856;2023-07-16T16:38:51;7.50;;;1.85;;
33148;SDS011;19506;51.040;3.856;2023-07-16T16:41:16;5.13;;;1.90;;
33148;SDS011;19506;51.040;3.856;2023-07-16T16:43:43;4.65;;;1.60;;
33148;SDS011;19506;51.040;3.856;2023-07-16T16:46:09;4.72;;;1.67;;
33148;SDS011;19506;51.040;3.856;2023-07-16T16:48:35;3.47;;;1.63;;
33148;SDS011;19506;51.040;3.856;2023-07-16T16:51:02;4.57;;;1.85;;
33148;SDS011;19506;51.040;3.856;2023-07-16T16:53:28;3.10;;;1.58;;
33148;SDS011;19506;51.040;3.856;2023-07-16T16:55:54;6.53;;;2.30;;
33148;SDS011;19506;51.040;3.856;2023-07-16T16:58:23;3.80;;;1.88;;
33148;SDS011;19506;51.040;3.856;2023-07-16T17:00:48;7.47;;;1.67;;
33148;SDS011;19506;51.040;3.856;2023-07-16T17:03:17;6.00;;;1.88;;
33148;SDS011;19506;51.040;3.856;2023-07-16T17:05:43;4.15;;;1.67;;
33148;SDS011;19506;51.040;3.856;2023-07-16T17:08:09;6.78;;;1.80;;
33148;SDS011;19506;51.040;3.856;2023-07-16T17:10:35;3.50;;;1.63;;
33148;SDS011;19506;51.040;3.856;2023-07-16T17:13:01;4.40;;;1.40;;
33148;SDS011;19506;51.040;3.856;2023-07-16T17:15:26;5.45;;;1.77;;
33148;SDS011;19506;51.040;3.856;2023-07-16T17:17:52;4.50;;;1.80;;
33148;SDS011;19506;51.040;3.856;2023-07-16T17:20:19;4.22;;;1.50;;
33148;SDS011;19506;51.040;3.856;2023-07-16T17:22:44;11.48;;;1.73;;
33148;SDS011;19506;51.040;3.856;2023-07-16T17:25:10;5.70;;;1.70;;
33148;SDS011;19506;51.040;3.856;2023-07-16T17:27:36;6.25;;;2.25;;
33148;SDS011;19506;51.040;3.856;2023-07-16T17:30:03;10.15;;;2.03;;
33148;SDS011;19506;51.040;3.856;2023-07-16T17:32:29;6.35;;;2.75;;
33148;SDS011;19506;51.040;3.856;2023-07-16T17:34:56;16.65;;;2.20;;
33148;SDS011;19506;51.040;3.856;2023-07-16T17:37:22;11.40;;;3.30;;
33148;SDS011;19506;51.040;3.856;2023-07-16T17:39:47;6.72;;;1.75;;
33148;SDS011;19506;51.040;3.856;2023-07-16T17:42:15;6.13;;;1.88;;
33148;SDS011;19506;51.040;3.856;2023-07-16T17:44:41;13.85;;;4.28;;
33148;SDS011;19506;51.040;3.856;2023-07-16T17:47:10;8.63;;;1.67;;
33148;SDS011;19506;51.040;3.856;2023-07-16T17:49:36;47.33;;;3.67;;
33148;SDS011;19506;51.040;3.856;2023-07-16T17:52:02;8.77;;;2.00;;
33148;SDS011;19506;51.040;3.856;2023-07-16T17:54:28;5.40;;;2.50;;
33148;SDS011;19506;51.040;3.856;2023-07-16T17:56:54;10.55;;;2.03;;
33148;SDS011;19506;51.040;3.856;2023-07-16T17:59:20;6.68;;;2.10;;
33148;SDS011;19506;51.040;3.856;2023-07-16T18:01:47;15.48;;;2.45;;